createdAt,value
2018-06-12T00:02:12.213Z,79.80
2018-06-12T00:04:40.735Z,80.10
2018-06-12T00:07:09.339Z,80.20
2018-06-12T00:09:37.864Z,80.50
2018-06-12T00:12:06.423Z,80.60
2018-06-12T00:14:34.967Z,80.80
2018-06-12T00:17:06.195Z,81.00
2018-06-12T00:19:34.755Z,81.20
2018-06-12T00:22:06.222Z,81.20
2018-06-12T00:24:34.764Z,81.50
2018-06-12T00:27:03.290Z,82.00
2018-06-12T00:29:31.874Z,82.80
2018-06-12T00:32:00.371Z,82.90
2018-06-12T00:34:28.867Z,83.80
2018-06-12T00:36:57.399Z,82.70
2018-06-12T00:39:25.977Z,82.30
2018-06-12T00:41:54.523Z,82.60
2018-06-12T00:44:23.095Z,82.70
2018-06-12T00:46:51.590Z,83.10
2018-06-12T00:49:20.168Z,83.20
2018-06-12T00:51:48.663Z,83.40
2018-06-12T00:54:17.225Z,83.60
2018-06-12T00:56:56.819Z,83.60
2018-06-12T00:59:27.148Z,83.70
2018-06-12T01:01:55.668Z,82.80
2018-06-12T01:04:24.242Z,82.50
2018-06-12T01:06:52.744Z,82.40
2018-06-12T01:09:21.242Z,81.90
2018-06-12T01:11:49.789Z,80.50
2018-06-12T01:14:18.306Z,79.20
2018-06-12T01:16:46.844Z,78.00
2018-06-12T01:19:15.392Z,77.10
2018-06-12T01:21:43.955Z,76.70
2018-06-12T01:24:12.543Z,76.50
2018-06-12T01:26:41.171Z,76.60
2018-06-12T01:29:09.696Z,76.00
2018-06-12T01:31:38.285Z,75.80
2018-06-12T01:34:06.855Z,75.90
2018-06-12T01:36:35.415Z,76.40
2018-06-12T01:39:06.040Z,76.60
2018-06-12T01:41:34.567Z,77.00
2018-06-12T01:44:03.139Z,77.10
2018-06-12T01:46:31.643Z,77.40
2018-06-12T01:49:00.559Z,77.20
2018-06-12T01:51:29.147Z,77.40
2018-06-12T01:53:57.638Z,77.00
2018-06-12T01:56:26.259Z,77.00
2018-06-12T01:58:54.762Z,77.00
2018-06-12T02:01:23.279Z,77.00
2018-06-12T02:03:51.827Z,76.90
2018-06-12T02:06:20.331Z,77.20
2018-06-12T02:08:48.895Z,76.20
2018-06-12T02:11:17.391Z,76.40
2018-06-12T02:13:45.956Z,76.00
2018-06-12T02:16:14.467Z,76.80
2018-06-12T02:18:43.016Z,77.00
2018-06-12T02:21:11.551Z,76.90
2018-06-12T02:23:40.096Z,77.70
2018-06-12T02:26:08.674Z,78.30
2018-06-12T02:28:39.292Z,78.70
2018-06-12T02:31:07.799Z,79.20
2018-06-12T02:33:36.359Z,79.90
2018-06-12T02:36:04.883Z,79.80
2018-06-12T02:38:33.444Z,81.00
2018-06-12T02:41:01.971Z,81.10
2018-06-12T02:43:30.487Z,81.50
2018-06-12T02:45:59.031Z,81.10
2018-06-12T02:48:27.640Z,81.40
2018-06-12T02:50:56.171Z,79.90
2018-06-12T02:53:24.658Z,79.60
2018-06-12T02:55:53.811Z,79.50
2018-06-12T02:58:22.328Z,80.60
2018-06-12T03:00:50.855Z,80.70
2018-06-12T03:03:19.383Z,80.70
2018-06-12T03:05:47.908Z,80.60
2018-06-12T03:08:16.403Z,81.00
2018-06-12T03:10:44.932Z,80.90
2018-06-12T03:13:13.432Z,80.30
2018-06-12T03:15:42.043Z,80.20
2018-06-12T03:18:10.547Z,80.10
2018-06-12T03:20:46.462Z,79.40
2018-06-12T03:23:15.069Z,78.30
2018-06-12T03:25:45.630Z,78.10
2018-06-12T03:28:14.172Z,78.80
2018-06-12T03:30:43.125Z,78.90
2018-06-12T03:33:11.668Z,78.30
2018-06-12T03:35:40.176Z,78.10
2018-06-12T03:38:08.678Z,79.00
2018-06-12T03:40:37.211Z,79.60
2018-06-12T03:43:05.813Z,80.00
2018-06-12T03:45:34.311Z,80.60
2018-06-12T03:48:02.860Z,80.30
2018-06-12T03:50:31.484Z,81.10
2018-06-12T03:53:00.019Z,81.40
2018-06-12T03:55:28.535Z,81.70
2018-06-12T03:57:57.110Z,81.40
2018-06-12T04:00:25.635Z,82.50
2018-06-12T04:02:54.238Z,83.20
2018-06-12T04:05:22.733Z,83.20
2018-06-12T04:07:51.280Z,83.80
2018-06-12T04:10:19.768Z,83.30
2018-06-12T04:12:48.339Z,81.10
2018-06-12T04:15:16.883Z,82.90
2018-06-12T04:17:45.428Z,83.60
2018-06-12T04:20:13.950Z,84.30
2018-06-12T04:22:42.454Z,83.10
2018-06-12T04:25:11.891Z,84.50
2018-06-12T04:27:40.383Z,83.40
2018-06-12T04:30:08.887Z,79.90
2018-06-12T04:32:37.413Z,79.50
2018-06-12T04:35:05.974Z,78.50
2018-06-12T04:37:34.464Z,77.40
2018-06-12T04:40:03.035Z,76.60
2018-06-12T04:42:31.570Z,75.30
2018-06-12T04:45:00.105Z,75.00
2018-06-12T04:47:28.614Z,75.50
2018-06-12T04:49:57.122Z,75.30
2018-06-12T04:52:25.624Z,74.20
2018-06-12T04:54:54.182Z,72.90
2018-06-12T04:57:22.671Z,73.60
2018-06-12T04:59:51.162Z,72.50
2018-06-12T05:02:19.700Z,72.80
2018-06-12T05:04:48.158Z,72.80
2018-06-12T05:07:16.739Z,73.10
2018-06-12T05:09:45.224Z,73.00
2018-06-12T05:12:13.878Z,73.20
2018-06-12T05:14:42.382Z,73.80
2018-06-12T05:17:10.906Z,73.60
2018-06-12T05:19:39.431Z,73.50
2018-06-12T05:22:07.974Z,74.40
2018-06-12T05:24:36.542Z,74.80
2018-06-12T05:27:05.146Z,74.90
2018-06-12T05:29:33.642Z,74.70
2018-06-12T05:32:03.000Z,75.30
2018-06-12T05:34:31.493Z,75.40
2018-06-12T05:37:00.035Z,74.70
2018-06-12T05:39:28.608Z,74.60
2018-06-12T05:41:57.298Z,74.70
2018-06-12T05:44:25.873Z,74.70
2018-06-12T05:46:54.411Z,75.70
2018-06-12T05:49:22.954Z,75.40
2018-06-12T05:51:51.522Z,74.80
2018-06-12T05:54:20.406Z,75.10
2018-06-12T05:56:48.894Z,74.60
2018-06-12T05:59:17.427Z,74.40
2018-06-12T06:01:47.079Z,73.70
2018-06-12T06:04:15.587Z,73.80
2018-06-12T06:06:44.095Z,73.00
2018-06-12T06:09:12.716Z,72.60
2018-06-12T06:11:41.267Z,73.10
2018-06-12T06:14:09.867Z,73.70
2018-06-12T06:16:38.399Z,73.70
2018-06-12T06:19:06.991Z,73.90
2018-06-12T06:21:35.515Z,72.50
2018-06-12T06:24:04.141Z,72.70
2018-06-12T06:26:32.758Z,72.50
2018-06-12T06:29:01.330Z,72.20
2018-06-12T06:31:29.822Z,72.60
2018-06-12T06:33:58.466Z,72.30
2018-06-12T06:36:27.070Z,71.50
2018-06-12T06:38:55.608Z,70.60
2018-06-12T06:41:24.124Z,70.30
2018-06-12T06:46:20.887Z,69.70
2018-06-12T06:48:49.412Z,69.70
2018-06-12T06:51:17.959Z,69.80
2018-06-12T06:53:46.508Z,69.50
2018-06-12T06:56:15.105Z,69.50
2018-06-12T06:58:43.733Z,69.10
2018-06-12T07:01:12.379Z,70.10
2018-06-12T07:03:40.971Z,68.20
2018-06-12T07:06:09.531Z,68.60
2018-06-12T07:08:38.075Z,69.00
2018-06-12T07:11:06.643Z,68.10
2018-06-12T07:13:35.262Z,67.90
2018-06-12T07:16:03.839Z,67.10
2018-06-12T07:18:32.328Z,66.90
2018-06-12T07:21:08.442Z,66.80
2018-06-12T07:23:36.977Z,65.80
2018-06-12T07:26:05.611Z,65.70
2018-06-12T07:28:34.228Z,65.30
2018-06-12T07:31:02.792Z,66.00
2018-06-12T07:33:31.379Z,66.80
2018-06-12T07:35:59.911Z,67.20
2018-06-12T07:38:28.541Z,65.80
2018-06-12T07:40:57.076Z,64.00
2018-06-12T07:43:25.615Z,64.00
2018-06-12T07:45:54.253Z,62.50
2018-06-12T07:48:22.792Z,64.00
2018-06-12T07:50:51.324Z,63.20
2018-06-12T07:53:19.883Z,62.20
2018-06-12T07:55:48.484Z,62.30
2018-06-12T07:58:17.076Z,61.50
2018-06-12T08:00:45.596Z,61.60
2018-06-12T08:03:14.794Z,60.10
2018-06-12T08:05:43.437Z,61.40
2018-06-12T08:08:12.054Z,61.10
2018-06-12T08:10:40.658Z,59.70
2018-06-12T08:13:09.276Z,60.30
2018-06-12T08:15:37.823Z,61.50
2018-06-12T08:18:06.371Z,59.40
2018-06-12T08:20:34.958Z,59.20
2018-06-12T08:23:03.454Z,59.20
2018-06-12T08:25:32.045Z,60.10
2018-06-12T08:28:00.610Z,59.80
2018-06-12T08:30:29.163Z,59.40
2018-06-12T08:32:57.698Z,58.80
2018-06-12T08:35:26.251Z,58.30
2018-06-12T08:37:54.813Z,58.50
2018-06-12T08:40:23.467Z,58.30
2018-06-12T08:42:52.100Z,58.80
2018-06-12T08:45:21.115Z,58.50
2018-06-12T08:47:49.673Z,58.90
2018-06-12T08:50:18.239Z,59.50
2018-06-12T08:52:46.814Z,59.40
2018-06-12T08:55:15.315Z,58.90
2018-06-12T08:57:43.899Z,58.40
2018-06-12T09:00:12.469Z,57.60
2018-06-12T09:05:09.573Z,57.60
2018-06-12T09:07:38.127Z,57.40
2018-06-12T09:10:06.701Z,57.60
2018-06-12T09:12:35.239Z,57.20
2018-06-12T09:15:03.851Z,56.50
2018-06-12T09:17:32.412Z,56.40
2018-06-12T09:20:00.961Z,56.40
2018-06-12T09:22:29.477Z,55.70
2018-06-12T09:24:58.002Z,56.30
2018-06-12T09:29:54.728Z,56.10
2018-06-12T09:32:23.295Z,55.60
2018-06-12T09:34:51.831Z,54.80
2018-06-12T09:37:20.580Z,54.30
2018-06-12T09:39:49.143Z,56.00
2018-06-12T09:42:17.648Z,54.00
2018-06-12T09:44:46.155Z,53.60
2018-06-12T09:47:14.664Z,53.90
2018-06-12T09:49:43.223Z,52.70
2018-06-12T09:52:11.753Z,54.70
2018-06-12T09:54:40.264Z,52.80
2018-06-12T09:57:08.740Z,51.00
2018-06-12T09:59:38.757Z,50.80
2018-06-12T10:02:07.248Z,51.30
2018-06-12T10:04:35.781Z,50.50
2018-06-12T10:07:04.348Z,51.30
2018-06-12T10:09:32.866Z,51.30
2018-06-12T10:12:01.744Z,51.20
2018-06-12T10:14:30.296Z,51.20
2018-06-12T10:16:58.866Z,51.60
2018-06-12T10:19:27.432Z,51.60
2018-06-12T10:21:55.939Z,52.40
2018-06-12T10:24:24.518Z,51.10
2018-06-12T10:26:52.996Z,49.80
2018-06-12T10:29:21.514Z,51.20
2018-06-12T10:31:50.040Z,51.90
2018-06-12T10:34:18.598Z,49.10
2018-06-12T10:36:47.069Z,51.30
2018-06-12T10:39:15.621Z,48.30
2018-06-12T10:41:44.128Z,48.10
2018-06-12T10:44:12.588Z,49.30
2018-06-12T10:46:41.138Z,48.90
2018-06-12T10:49:09.647Z,49.30
2018-06-12T10:51:38.156Z,49.30
2018-06-12T10:54:06.637Z,50.30
2018-06-12T10:56:35.169Z,51.10
2018-06-12T10:59:03.672Z,51.60
2018-06-12T11:01:32.196Z,51.30
2018-06-12T11:04:00.738Z,51.30
2018-06-12T11:06:29.264Z,52.80
2018-06-12T11:08:57.760Z,53.80
2018-06-12T11:13:54.400Z,54.10
2018-06-12T11:16:22.984Z,54.50
2018-06-12T11:18:51.528Z,54.30
2018-06-12T11:21:20.065Z,54.80
2018-06-12T11:23:48.590Z,55.00
2018-06-12T11:26:17.108Z,55.60
2018-06-12T11:28:45.619Z,56.40
2018-06-12T11:31:14.111Z,56.20
2018-06-12T11:36:10.744Z,57.70
2018-06-12T11:38:39.227Z,57.70
2018-06-12T11:41:07.834Z,57.70
2018-06-12T11:43:36.339Z,57.90
2018-06-12T11:46:04.872Z,57.70
2018-06-12T11:48:33.415Z,57.20
2018-06-12T11:51:01.938Z,57.90
2018-06-12T11:53:30.427Z,58.20
2018-06-12T11:55:58.899Z,59.50
2018-06-12T11:58:27.432Z,60.50
2018-06-12T12:00:55.961Z,63.50
2018-06-12T12:03:24.555Z,66.00
2018-06-12T12:05:53.029Z,66.20
2018-06-12T12:08:21.539Z,67.70
2018-06-12T12:10:50.059Z,67.70
2018-06-12T12:13:18.564Z,67.90
2018-06-12T12:15:47.130Z,67.90
2018-06-12T12:20:45.214Z,71.70
2018-06-12T12:23:13.702Z,71.30
2018-06-12T12:25:42.267Z,72.40
2018-06-12T12:28:10.726Z,74.00
2018-06-12T12:30:39.271Z,74.60
2018-06-12T12:33:07.769Z,75.10
2018-06-12T12:35:36.340Z,75.40
2018-06-12T12:38:04.830Z,77.00
2018-06-12T12:40:33.346Z,77.30
2018-06-12T12:43:01.897Z,78.90
2018-06-12T12:45:30.459Z,80.70
2018-06-12T12:47:58.995Z,83.10
2018-06-12T12:50:27.495Z,81.50
2018-06-12T12:52:56.023Z,80.90
2018-06-12T12:55:24.518Z,81.30
2018-06-12T12:57:53.047Z,81.90
2018-06-12T13:00:21.552Z,82.30
2018-06-12T13:02:50.131Z,83.50
2018-06-12T13:05:18.723Z,84.20
2018-06-12T13:07:47.227Z,82.40
2018-06-12T13:10:15.750Z,81.20
2018-06-12T13:12:44.255Z,81.80
2018-06-12T13:15:12.769Z,82.60
2018-06-12T13:17:42.534Z,83.40
2018-06-12T13:20:11.676Z,83.60
2018-06-12T13:22:40.228Z,84.00
2018-06-12T13:25:08.732Z,84.50
2018-06-12T13:27:37.320Z,85.30
2018-06-12T13:30:05.802Z,86.50
2018-06-12T13:32:34.356Z,87.20
2018-06-12T13:35:02.830Z,87.60
2018-06-12T13:37:31.366Z,88.30
2018-06-12T13:39:59.887Z,87.80
2018-06-12T13:42:28.399Z,87.80
2018-06-12T13:44:56.938Z,88.50
2018-06-12T13:47:25.442Z,89.00
2018-06-12T13:49:54.005Z,89.60
2018-06-12T13:52:22.506Z,90.10
2018-06-12T13:54:51.219Z,90.10
2018-06-12T13:57:19.742Z,90.30
2018-06-12T13:59:48.324Z,90.50
2018-06-12T14:02:16.852Z,90.70
2018-06-12T14:04:45.496Z,90.50
2018-06-12T14:07:13.971Z,90.50
2018-06-12T14:09:42.523Z,90.70
2018-06-12T14:12:11.060Z,91.20
2018-06-12T14:14:39.655Z,91.60
2018-06-12T14:17:08.163Z,91.90
2018-06-12T14:19:36.759Z,92.10
2018-06-12T14:22:05.360Z,92.10
2018-06-12T14:24:33.893Z,92.10
2018-06-12T14:27:02.435Z,92.40
2018-06-12T14:29:30.988Z,92.40
2018-06-12T14:31:59.507Z,92.50
2018-06-12T14:34:27.991Z,92.50
2018-06-12T14:36:56.596Z,92.40
2018-06-12T14:39:25.171Z,92.30
2018-06-12T14:41:53.708Z,92.50
2018-06-12T14:44:22.175Z,92.80
2018-06-12T14:46:51.031Z,92.80
2018-06-12T14:49:19.511Z,93.00
2018-06-12T14:51:48.102Z,92.90
2018-06-12T14:54:16.684Z,93.00
2018-06-12T14:56:45.264Z,92.90
2018-06-12T14:59:13.828Z,92.80
2018-06-12T15:01:42.354Z,92.30
2018-06-12T15:04:10.896Z,92.80
2018-06-12T15:06:39.491Z,92.70
2018-06-12T15:09:08.341Z,92.50
2018-06-12T15:11:36.955Z,92.70
2018-06-12T15:14:05.761Z,93.20
2018-06-12T15:16:34.451Z,93.00
2018-06-12T15:19:03.011Z,92.90
2018-06-12T15:21:31.539Z,93.20
2018-06-12T15:24:00.131Z,93.20
2018-06-12T15:26:28.736Z,93.50
2018-06-12T15:28:57.632Z,93.60
2018-06-12T15:31:26.184Z,93.50
2018-06-12T15:33:54.747Z,93.70
2018-06-12T15:36:23.253Z,93.90
2018-06-12T15:38:51.801Z,94.20
2018-06-12T15:41:20.295Z,94.60
2018-06-12T15:43:48.847Z,94.80
2018-06-12T15:46:17.331Z,94.80
2018-06-12T15:48:45.872Z,94.70
2018-06-12T15:51:14.431Z,94.50
2018-06-12T15:53:42.991Z,94.60
2018-06-12T15:56:11.534Z,94.50
2018-06-12T15:58:40.053Z,94.70
2018-06-12T16:01:08.575Z,94.70
2018-06-12T16:03:37.139Z,94.70
2018-06-12T16:06:05.696Z,94.70
2018-06-12T16:08:34.259Z,94.60
2018-06-12T16:11:02.775Z,94.50
2018-06-12T16:13:31.268Z,94.60
2018-06-12T16:15:59.860Z,94.30
2018-06-12T16:18:28.375Z,94.30
2018-06-12T16:20:56.979Z,94.10
2018-06-12T16:23:25.523Z,94.20
2018-06-12T16:25:54.188Z,94.20
2018-06-12T16:28:22.687Z,94.30
2018-06-12T16:30:51.271Z,94.50
2018-06-12T16:33:19.839Z,94.40
2018-06-12T16:35:48.351Z,94.50
2018-06-12T16:38:16.902Z,94.40
2018-06-12T16:40:45.467Z,94.40
2018-06-12T16:43:13.959Z,94.60
2018-06-12T16:45:42.484Z,94.70
2018-06-12T16:48:11.389Z,94.70
2018-06-12T16:50:39.871Z,94.70
2018-06-12T16:53:08.419Z,94.90
2018-06-12T16:55:36.993Z,94.80
2018-06-12T16:58:05.574Z,94.80
2018-06-12T17:00:34.126Z,94.40
2018-06-12T17:03:02.704Z,94.40
2018-06-12T17:05:31.213Z,94.30
2018-06-12T17:07:59.771Z,94.20
2018-06-12T17:10:28.459Z,94.20
2018-06-12T17:12:56.972Z,93.90
2018-06-12T17:15:25.508Z,93.50
2018-06-12T17:17:54.158Z,93.10
2018-06-12T17:20:22.715Z,92.80
2018-06-12T17:22:51.399Z,92.80
2018-06-12T17:25:20.081Z,93.00
2018-06-12T17:27:48.707Z,93.50
2018-06-12T17:30:17.355Z,94.00
2018-06-12T17:32:45.932Z,94.30
2018-06-12T17:35:15.852Z,94.50
2018-06-12T17:37:44.540Z,94.90
2018-06-12T17:40:13.092Z,95.20
2018-06-12T17:42:41.613Z,95.30
2018-06-12T17:45:10.142Z,95.20
2018-06-12T17:47:38.656Z,95.10
2018-06-12T17:50:07.272Z,95.10
2018-06-12T17:52:35.833Z,94.90
2018-06-12T17:55:04.572Z,94.60
2018-06-12T17:57:33.005Z,94.50
2018-06-12T18:00:01.566Z,94.70
2018-06-12T18:02:30.246Z,94.70
2018-06-12T18:04:58.992Z,94.80
2018-06-12T18:07:27.672Z,94.80
2018-06-12T18:09:56.297Z,94.60
2018-06-12T18:12:24.835Z,94.80
2018-06-12T18:14:53.339Z,94.80
2018-06-12T18:17:21.959Z,94.70
2018-06-12T18:19:55.758Z,94.60
2018-06-12T18:22:24.335Z,94.70
2018-06-12T18:24:53.387Z,94.10
2018-06-12T18:27:21.973Z,93.10
2018-06-12T18:29:50.600Z,93.30
2018-06-12T18:32:19.327Z,93.70
2018-06-12T18:34:47.991Z,93.80
2018-06-12T18:37:17.325Z,94.10
2018-06-12T18:39:45.912Z,94.00
2018-06-12T18:44:42.940Z,94.60
2018-06-12T18:47:11.436Z,94.60
2018-06-12T18:49:40.032Z,94.60
2018-06-12T18:52:08.593Z,94.50
2018-06-12T18:54:37.125Z,94.10
2018-06-12T18:57:05.667Z,94.10
2018-06-12T18:59:34.210Z,94.30
2018-06-12T19:02:02.688Z,94.60
2018-06-12T19:04:31.236Z,94.70
2018-06-12T19:07:02.613Z,94.70
2018-06-12T19:09:31.172Z,94.80
2018-06-12T19:11:59.806Z,95.10
2018-06-12T19:14:29.699Z,95.10
2018-06-12T19:16:58.282Z,95.30
2018-06-12T19:19:26.856Z,95.20
2018-06-12T19:21:55.662Z,95.30
2018-06-12T19:24:24.440Z,95.40
2018-06-12T19:26:53.218Z,95.50
2018-06-12T19:29:22.760Z,95.50
2018-06-12T19:31:51.366Z,95.60
2018-06-12T19:34:20.036Z,95.40
2018-06-12T19:36:48.800Z,95.30
2018-06-12T19:39:17.438Z,95.40
2018-06-12T19:41:46.171Z,95.90
2018-06-12T19:44:14.818Z,95.80
2018-06-12T19:46:43.440Z,95.50
2018-06-12T19:49:11.980Z,95.40
2018-06-12T19:51:40.576Z,95.40
2018-06-12T19:54:09.135Z,95.10
2018-06-12T19:56:37.674Z,94.90
2018-06-12T19:59:06.270Z,94.80
2018-06-12T20:01:34.801Z,94.40
2018-06-12T20:04:03.352Z,94.70
2018-06-12T20:06:31.860Z,94.60
2018-06-12T20:09:00.454Z,95.00
2018-06-12T20:11:28.954Z,95.20
2018-06-12T20:13:57.531Z,95.20
2018-06-12T20:16:26.120Z,94.80
2018-06-12T20:18:54.772Z,95.00
2018-06-12T20:21:23.290Z,95.00
2018-06-12T20:23:51.901Z,95.10
2018-06-12T20:26:20.451Z,95.50
2018-06-12T20:28:49.379Z,95.50
2018-06-12T20:33:46.176Z,95.00
2018-06-12T20:36:14.752Z,94.90
2018-06-12T20:38:43.278Z,95.30
2018-06-12T20:41:11.894Z,95.50
2018-06-12T20:43:40.519Z,95.70
2018-06-12T20:46:09.054Z,95.60
2018-06-12T20:48:38.113Z,95.40
2018-06-12T20:51:06.703Z,95.20
2018-06-12T20:53:35.300Z,95.30
2018-06-12T20:56:03.974Z,95.30
2018-06-12T20:58:32.499Z,95.10
2018-06-12T21:01:01.038Z,95.00
2018-06-12T21:03:29.652Z,95.10
2018-06-12T21:05:58.232Z,95.40
2018-06-12T21:08:26.742Z,95.50
2018-06-12T21:10:55.380Z,95.60
2018-06-12T21:13:23.950Z,95.40
2018-06-12T21:15:52.507Z,95.30
2018-06-12T21:18:21.044Z,95.30
2018-06-12T21:20:49.609Z,95.30
2018-06-12T21:23:18.165Z,95.50
2018-06-12T21:25:46.681Z,95.30
2018-06-12T21:28:15.338Z,95.30
2018-06-12T21:30:43.860Z,95.40
2018-06-12T21:33:12.459Z,95.30
2018-06-12T21:35:40.933Z,95.30
2018-06-12T21:38:09.513Z,95.30
2018-06-12T21:40:38.039Z,95.40
2018-06-12T21:43:06.653Z,95.50
2018-06-12T21:45:35.234Z,95.30
2018-06-12T21:48:03.828Z,95.20
2018-06-12T21:50:32.308Z,95.30
2018-06-12T21:53:00.885Z,95.10
2018-06-12T21:55:29.417Z,94.90
2018-06-12T21:57:57.972Z,94.80
2018-06-12T22:00:34.882Z,95.00
2018-06-12T22:03:03.440Z,95.10
2018-06-12T22:05:31.939Z,95.20
2018-06-12T22:08:00.476Z,95.20
2018-06-12T22:10:29.036Z,95.40
2018-06-12T22:12:57.580Z,95.50
2018-06-12T22:15:26.150Z,95.50
2018-06-12T22:17:55.716Z,95.50
2018-06-12T22:20:24.287Z,95.50
2018-06-12T22:22:52.841Z,95.90
2018-06-12T22:25:21.526Z,95.60
2018-06-12T22:27:50.127Z,95.70
2018-06-12T22:30:18.740Z,95.60
2018-06-12T22:32:47.282Z,95.70
2018-06-12T22:35:15.844Z,95.80
2018-06-12T22:37:44.379Z,96.00
2018-06-12T22:40:12.938Z,96.00
2018-06-12T22:42:41.440Z,96.10
2018-06-12T22:45:10.000Z,95.90
2018-06-12T22:47:38.596Z,96.10
2018-06-12T22:50:07.325Z,96.20
2018-06-12T22:52:35.928Z,96.20
2018-06-12T22:55:04.550Z,96.20
2018-06-12T22:57:33.312Z,96.30
2018-06-12T23:00:02.522Z,96.50
2018-06-12T23:02:32.212Z,96.50
2018-06-12T23:05:00.812Z,96.40
2018-06-12T23:07:29.468Z,96.40
2018-06-12T23:09:58.610Z,96.60
2018-06-12T23:12:27.280Z,96.70
2018-06-12T23:14:55.860Z,96.70
2018-06-12T23:17:24.418Z,97.00
2018-06-12T23:22:08.631Z,96.70
2018-06-12T23:24:37.234Z,96.60
2018-06-12T23:27:05.985Z,96.70
2018-06-12T23:29:34.506Z,96.60
2018-06-12T23:32:03.140Z,96.60
2018-06-12T23:34:31.674Z,96.60
2018-06-12T23:37:01.965Z,96.50
2018-06-12T23:39:31.163Z,96.50
2018-06-12T23:41:59.739Z,96.20
2018-06-12T23:44:28.215Z,95.90
2018-06-12T23:46:56.743Z,96.10
2018-06-12T23:49:25.356Z,96.20
2018-06-12T23:51:53.859Z,96.30
2018-06-12T23:54:22.413Z,96.00
2018-06-12T23:56:50.973Z,95.90
2018-06-12T23:59:19.563Z,95.90
